Alta, West Virginia
Current Conditions -  °F | °C
As of 11:55 PM on Sunday 23 Nov 2014 (Local Time) from KLWB Reporting Station
Overcast Overcast  
Wind Chill: 57°   Ceiling: 2300
Heat Index: 57°   Visibility: 10mi
Dew Point: 51°   Wind: 3mph
Humidity: 81%   Direction: 190°S
Pressure: 29.65"   Gusts: NA
Location:  37.8345°N, 80.5736°W
Report Text: KLWB 240455Z AUTO 19003KT 10SM BKN023 BKN033 OVC043 14/11 A2965 RMK AO2 T01370105 401371025
Loading
Personal Weather Stations






























Interactive Weather Map New forecast layout! Learn more

10-Day Weather Forecast

Advertisements
Track Severe Weather on mobile